Terminal Aerodrome Forecast
Issued by NWS

Home | Current Version | Previous Version | Text Only | Print | Product List | Glossary On
Versions: 1 2 3 4 5 6 7 8 9 10 11 12 13 14 15 16 17 18
000
FTUS43 KGRR 260534
TAFBTL
TAF
KBTL 260534Z 2606/2706 20010KT P6SM SCT200
     FM261200 19012KT 5SM BR BKN015
     FM261500 19013KT P6SM VCTS BKN035CB
     FM262000 21015G25KT 2SM TSRA BR BKN035CB
     FM262300 19012KT 5SM BR VCSH BKN050=

USA.gov is the U.S. government's official web portal to all federal, state and local government web resources and services.